sensor_id;sensor_type;location;lat;lon;timestamp;temperature;humidity
23160;DHT22;11748;50.844;4.396;2023-03-12T00:00:45;8.00;99.90
23160;DHT22;11748;50.844;4.396;2023-03-12T00:03:11;8.00;99.90
23160;DHT22;11748;50.844;4.396;2023-03-12T00:05:41;8.00;99.90
23160;DHT22;11748;50.844;4.396;2023-03-12T00:08:07;8.10;99.90
23160;DHT22;11748;50.844;4.396;2023-03-12T00:10:33;8.10;99.90
23160;DHT22;11748;50.844;4.396;2023-03-12T00:12:59;8.10;99.90
23160;DHT22;11748;50.844;4.396;2023-03-12T00:15:26;8.10;99.90
23160;DHT22;11748;50.844;4.396;2023-03-12T00:17:52;7.90;99.90
23160;DHT22;11748;50.844;4.396;2023-03-12T00:20:18;7.90;99.90
23160;DHT22;11748;50.844;4.396;2023-03-12T00:22:45;7.90;99.90
23160;DHT22;11748;50.844;4.396;2023-03-12T00:25:13;7.90;99.90
23160;DHT22;11748;50.844;4.396;2023-03-12T00:27:40;8.00;99.90
23160;DHT22;11748;50.844;4.396;2023-03-12T00:30:06;7.90;99.90
23160;DHT22;11748;50.844;4.396;2023-03-12T00:32:33;7.90;99.90
23160;DHT22;11748;50.844;4.396;2023-03-12T00:34:59;8.00;99.90
23160;DHT22;11748;50.844;4.396;2023-03-12T00:37:25;8.00;99.90
23160;DHT22;11748;50.844;4.396;2023-03-12T00:39:51;8.00;99.90
23160;DHT22;11748;50.844;4.396;2023-03-12T00:42:17;7.90;99.90
23160;DHT22;11748;50.844;4.396;2023-03-12T00:44:43;7.80;99.90
23160;DHT22;11748;50.844;4.396;2023-03-12T00:47:09;7.90;99.90
23160;DHT22;11748;50.844;4.396;2023-03-12T00:49:35;7.80;99.90
23160;DHT22;11748;50.844;4.396;2023-03-12T00:52:01;7.80;99.90
23160;DHT22;11748;50.844;4.396;2023-03-12T00:54:27;7.60;99.90
23160;DHT22;11748;50.844;4.396;2023-03-12T00:56:52;7.60;99.90
23160;DHT22;11748;50.844;4.396;2023-03-12T00:59:18;7.70;99.90
23160;DHT22;11748;50.844;4.396;2023-03-12T01:01:44;7.60;99.90
23160;DHT22;11748;50.844;4.396;2023-03-12T01:04:10;7.70;99.90
23160;DHT22;11748;50.844;4.396;2023-03-12T01:06:36;7.70;99.90
23160;DHT22;11748;50.844;4.396;2023-03-12T01:09:03;7.70;99.90
23160;DHT22;11748;50.844;4.396;2023-03-12T01:11:30;7.60;99.90
23160;DHT22;11748;50.844;4.396;2023-03-12T01:14:01;7.60;99.90
23160;DHT22;11748;50.844;4.396;2023-03-12T01:16:27;7.50;99.90
23160;DHT22;11748;50.844;4.396;2023-03-12T01:18:55;7.50;99.90
23160;DHT22;11748;50.844;4.396;2023-03-12T01:21:23;7.50;99.90
23160;DHT22;11748;50.844;4.396;2023-03-12T01:23:50;7.50;99.90
23160;DHT22;11748;50.844;4.396;2023-03-12T01:26:16;7.50;99.90
23160;DHT22;11748;50.844;4.396;2023-03-12T01:28:42;7.50;99.90
23160;DHT22;11748;50.844;4.396;2023-03-12T01:31:09;7.50;99.90
23160;DHT22;11748;50.844;4.396;2023-03-12T01:33:35;7.50;99.90
23160;DHT22;11748;50.844;4.396;2023-03-12T01:36:01;7.50;99.90
23160;DHT22;11748;50.844;4.396;2023-03-12T01:38:27;7.50;99.90
23160;DHT22;11748;50.844;4.396;2023-03-12T01:40:52;7.50;99.90
23160;DHT22;11748;50.844;4.396;2023-03-12T01:43:33;7.50;99.90
23160;DHT22;11748;50.844;4.396;2023-03-12T01:56:57;7.30;99.90
23160;DHT22;11748;50.844;4.396;2023-03-12T01:59:30;7.20;99.90
23160;DHT22;11748;50.844;4.396;2023-03-12T02:01:57;7.30;99.90
23160;DHT22;11748;50.844;4.396;2023-03-12T02:04:25;7.20;99.90
23160;DHT22;11748;50.844;4.396;2023-03-12T02:07:10;7.10;99.90
23160;DHT22;11748;50.844;4.396;2023-03-12T02:09:40;7.00;99.90
23160;DHT22;11748;50.844;4.396;2023-03-12T02:12:07;7.00;99.90
23160;DHT22;11748;50.844;4.396;2023-03-12T02:14:33;7.00;99.90
23160;DHT22;11748;50.844;4.396;2023-03-12T02:17:00;7.00;99.90
23160;DHT22;11748;50.844;4.396;2023-03-12T02:22:06;7.20;99.90
23160;DHT22;11748;50.844;4.396;2023-03-12T02:24:57;7.10;99.90
23160;DHT22;11748;50.844;4.396;2023-03-12T02:27:23;7.00;99.90
23160;DHT22;11748;50.844;4.396;2023-03-12T02:29:49;6.90;99.90
23160;DHT22;11748;50.844;4.396;2023-03-12T02:32:25;7.00;99.90
23160;DHT22;11748;50.844;4.396;2023-03-12T02:34:52;7.10;99.90
23160;DHT22;11748;50.844;4.396;2023-03-12T02:37:18;6.90;99.90
23160;DHT22;11748;50.844;4.396;2023-03-12T02:39:50;6.90;99.90
23160;DHT22;11748;50.844;4.396;2023-03-12T02:42:18;6.90;99.90
23160;DHT22;11748;50.844;4.396;2023-03-12T02:44:44;7.00;99.90
23160;DHT22;11748;50.844;4.396;2023-03-12T02:47:10;7.10;99.90
23160;DHT22;11748;50.844;4.396;2023-03-12T02:49:36;7.00;99.90
23160;DHT22;11748;50.844;4.396;2023-03-12T02:52:03;7.00;99.90
23160;DHT22;11748;50.844;4.396;2023-03-12T02:54:29;7.00;99.90
23160;DHT22;11748;50.844;4.396;2023-03-12T02:56:55;7.10;99.90
23160;DHT22;11748;50.844;4.396;2023-03-12T02:59:22;7.10;99.90
23160;DHT22;11748;50.844;4.396;2023-03-12T03:01:55;7.10;99.90
23160;DHT22;11748;50.844;4.396;2023-03-12T03:04:22;7.10;99.90
23160;DHT22;11748;50.844;4.396;2023-03-12T03:06:48;7.10;99.90
23160;DHT22;11748;50.844;4.396;2023-03-12T03:09:14;7.10;99.90
23160;DHT22;11748;50.844;4.396;2023-03-12T03:11:40;7.00;99.90
23160;DHT22;11748;50.844;4.396;2023-03-12T03:14:06;7.10;99.90
23160;DHT22;11748;50.844;4.396;2023-03-12T03:16:32;7.10;99.90
23160;DHT22;11748;50.844;4.396;2023-03-12T03:18:58;7.10;99.90
23160;DHT22;11748;50.844;4.396;2023-03-12T03:21:24;7.10;99.90
23160;DHT22;11748;50.844;4.396;2023-03-12T03:23:50;7.20;99.90
23160;DHT22;11748;50.844;4.396;2023-03-12T03:26:19;7.10;99.90
23160;DHT22;11748;50.844;4.396;2023-03-12T03:28:45;7.30;99.90
23160;DHT22;11748;50.844;4.396;2023-03-12T03:31:11;7.30;99.90
23160;DHT22;11748;50.844;4.396;2023-03-12T03:33:38;7.40;99.90
23160;DHT22;11748;50.844;4.396;2023-03-12T03:36:04;7.30;99.90
23160;DHT22;11748;50.844;4.396;2023-03-12T03:38:31;7.30;99.90
23160;DHT22;11748;50.844;4.396;2023-03-12T03:40:59;7.40;99.90
23160;DHT22;11748;50.844;4.396;2023-03-12T03:43:25;7.40;99.90
23160;DHT22;11748;50.844;4.396;2023-03-12T03:46:00;7.50;99.90
23160;DHT22;11748;50.844;4.396;2023-03-12T03:48:26;7.50;99.90
23160;DHT22;11748;50.844;4.396;2023-03-12T03:50:52;7.50;99.90
23160;DHT22;11748;50.844;4.396;2023-03-12T03:53:18;7.50;99.90
23160;DHT22;11748;50.844;4.396;2023-03-12T03:55:46;7.50;99.90
23160;DHT22;11748;50.844;4.396;2023-03-12T03:58:12;7.40;99.90
23160;DHT22;11748;50.844;4.396;2023-03-12T04:00:38;7.40;99.90
23160;DHT22;11748;50.844;4.396;2023-03-12T04:03:04;7.40;99.90
23160;DHT22;11748;50.844;4.396;2023-03-12T04:05:30;7.60;99.90
23160;DHT22;11748;50.844;4.396;2023-03-12T04:07:56;7.50;99.90
23160;DHT22;11748;50.844;4.396;2023-03-12T04:10:27;7.50;99.90
23160;DHT22;11748;50.844;4.396;2023-03-12T04:12:53;7.60;99.90
23160;DHT22;11748;50.844;4.396;2023-03-12T04:15:19;7.50;99.90
23160;DHT22;11748;50.844;4.396;2023-03-12T04:17:45;7.50;99.90
23160;DHT22;11748;50.844;4.396;2023-03-12T04:20:11;7.50;99.90
23160;DHT22;11748;50.844;4.396;2023-03-12T04:22:37;7.50;99.90
23160;DHT22;11748;50.844;4.396;2023-03-12T04:25:05;7.50;99.90
23160;DHT22;11748;50.844;4.396;2023-03-12T04:27:32;7.50;99.90
23160;DHT22;11748;50.844;4.396;2023-03-12T04:29:58;7.50;99.90
23160;DHT22;11748;50.844;4.396;2023-03-12T04:32:24;7.60;99.90
23160;DHT22;11748;50.844;4.396;2023-03-12T04:34:49;7.60;99.90
23160;DHT22;11748;50.844;4.396;2023-03-12T04:37:15;7.60;99.90
23160;DHT22;11748;50.844;4.396;2023-03-12T04:39:42;7.60;99.90
23160;DHT22;11748;50.844;4.396;2023-03-12T04:42:08;7.70;99.90
23160;DHT22;11748;50.844;4.396;2023-03-12T04:44:34;7.70;99.90
23160;DHT22;11748;50.844;4.396;2023-03-12T04:47:01;7.80;99.90
23160;DHT22;11748;50.844;4.396;2023-03-12T04:49:27;7.80;99.90
23160;DHT22;11748;50.844;4.396;2023-03-12T04:51:53;7.70;99.90
23160;DHT22;11748;50.844;4.396;2023-03-12T04:54:19;7.70;99.90
23160;DHT22;11748;50.844;4.396;2023-03-12T04:56:46;7.70;99.90
23160;DHT22;11748;50.844;4.396;2023-03-12T04:59:12;7.60;99.90
23160;DHT22;11748;50.844;4.396;2023-03-12T05:01:38;7.60;99.90
23160;DHT22;11748;50.844;4.396;2023-03-12T05:04:04;7.60;99.90
23160;DHT22;11748;50.844;4.396;2023-03-12T05:06:30;7.60;99.90
23160;DHT22;11748;50.844;4.396;2023-03-12T05:08:56;7.60;99.90
23160;DHT22;11748;50.844;4.396;2023-03-12T05:11:22;7.70;99.90
23160;DHT22;11748;50.844;4.396;2023-03-12T05:13:48;7.70;99.90
23160;DHT22;11748;50.844;4.396;2023-03-12T05:16:14;7.70;99.90
23160;DHT22;11748;50.844;4.396;2023-03-12T05:18:41;7.70;99.90
23160;DHT22;11748;50.844;4.396;2023-03-12T05:21:18;7.80;99.90
23160;DHT22;11748;50.844;4.396;2023-03-12T05:23:44;7.70;99.90
23160;DHT22;11748;50.844;4.396;2023-03-12T05:26:18;7.70;99.90
23160;DHT22;11748;50.844;4.396;2023-03-12T05:28:44;7.70;99.90
23160;DHT22;11748;50.844;4.396;2023-03-12T05:31:11;7.70;99.90
23160;DHT22;11748;50.844;4.396;2023-03-12T05:33:37;7.70;99.90
23160;DHT22;11748;50.844;4.396;2023-03-12T05:36:03;7.70;99.90
23160;DHT22;11748;50.844;4.396;2023-03-12T05:38:29;7.70;99.90
23160;DHT22;11748;50.844;4.396;2023-03-12T05:40:56;7.80;99.90
23160;DHT22;11748;50.844;4.396;2023-03-12T05:43:23;7.80;99.90
23160;DHT22;11748;50.844;4.396;2023-03-12T05:45:49;7.80;99.90
23160;DHT22;11748;50.844;4.396;2023-03-12T05:48:15;8.00;99.90
23160;DHT22;11748;50.844;4.396;2023-03-12T05:50:41;8.00;99.90
23160;DHT22;11748;50.844;4.396;2023-03-12T05:53:07;8.00;99.90
23160;DHT22;11748;50.844;4.396;2023-03-12T05:55:35;7.90;99.90
23160;DHT22;11748;50.844;4.396;2023-03-12T05:58:01;8.10;99.90
23160;DHT22;11748;50.844;4.396;2023-03-12T06:00:27;8.10;99.90
23160;DHT22;11748;50.844;4.396;2023-03-12T06:02:53;8.00;99.90
23160;DHT22;11748;50.844;4.396;2023-03-12T06:05:19;7.80;99.90
23160;DHT22;11748;50.844;4.396;2023-03-12T06:07:45;7.80;99.90
23160;DHT22;11748;50.844;4.396;2023-03-12T06:10:10;7.50;99.90
23160;DHT22;11748;50.844;4.396;2023-03-12T06:12:36;7.60;99.90
23160;DHT22;11748;50.844;4.396;2023-03-12T06:15:02;7.70;99.90
23160;DHT22;11748;50.844;4.396;2023-03-12T06:17:29;7.80;99.90
23160;DHT22;11748;50.844;4.396;2023-03-12T06:19:56;7.80;99.90
23160;DHT22;11748;50.844;4.396;2023-03-12T06:22:22;8.00;99.90
23160;DHT22;11748;50.844;4.396;2023-03-12T06:24:48;7.70;99.90
23160;DHT22;11748;50.844;4.396;2023-03-12T06:27:14;7.50;99.90
23160;DHT22;11748;50.844;4.396;2023-03-12T06:29:40;7.50;99.90
23160;DHT22;11748;50.844;4.396;2023-03-12T06:32:06;7.50;99.90
23160;DHT22;11748;50.844;4.396;2023-03-12T06:34:32;7.60;99.90
23160;DHT22;11748;50.844;4.396;2023-03-12T06:36:58;7.70;99.90
23160;DHT22;11748;50.844;4.396;2023-03-12T06:39:24;7.70;99.90
23160;DHT22;11748;50.844;4.396;2023-03-12T06:41:50;7.60;99.90
23160;DHT22;11748;50.844;4.396;2023-03-12T06:44:16;7.60;99.90
23160;DHT22;11748;50.844;4.396;2023-03-12T06:46:42;7.60;99.90
23160;DHT22;11748;50.844;4.396;2023-03-12T06:49:12;7.60;99.90
23160;DHT22;11748;50.844;4.396;2023-03-12T06:51:38;7.60;99.90
23160;DHT22;11748;50.844;4.396;2023-03-12T06:54:04;7.50;99.90
23160;DHT22;11748;50.844;4.396;2023-03-12T06:56:30;7.50;99.90
23160;DHT22;11748;50.844;4.396;2023-03-12T06:58:56;7.40;99.90
23160;DHT22;11748;50.844;4.396;2023-03-12T07:01:22;7.60;99.90
23160;DHT22;11748;50.844;4.396;2023-03-12T07:03:48;7.70;99.90
23160;DHT22;11748;50.844;4.396;2023-03-12T07:06:15;7.70;99.90
23160;DHT22;11748;50.844;4.396;2023-03-12T07:08:42;7.70;99.90
23160;DHT22;11748;50.844;4.396;2023-03-12T07:11:08;7.90;99.90
23160;DHT22;11748;50.844;4.396;2023-03-12T07:13:34;7.90;99.90
23160;DHT22;11748;50.844;4.396;2023-03-12T07:16:00;7.90;99.90
23160;DHT22;11748;50.844;4.396;2023-03-12T07:18:26;7.90;99.90
23160;DHT22;11748;50.844;4.396;2023-03-12T07:20:52;8.00;99.90
23160;DHT22;11748;50.844;4.396;2023-03-12T07:23:17;8.10;99.90
23160;DHT22;11748;50.844;4.396;2023-03-12T07:25:44;8.00;99.90
23160;DHT22;11748;50.844;4.396;2023-03-12T07:28:11;8.00;99.90
23160;DHT22;11748;50.844;4.396;2023-03-12T07:30:38;8.00;99.90
23160;DHT22;11748;50.844;4.396;2023-03-12T07:33:11;8.00;99.90
23160;DHT22;11748;50.844;4.396;2023-03-12T07:35:38;8.10;99.90
23160;DHT22;11748;50.844;4.396;2023-03-12T07:38:05;8.20;99.90
23160;DHT22;11748;50.844;4.396;2023-03-12T07:40:31;8.20;99.90
23160;DHT22;11748;50.844;4.396;2023-03-12T07:42:57;8.30;99.90
23160;DHT22;11748;50.844;4.396;2023-03-12T07:45:23;8.50;99.90
23160;DHT22;11748;50.844;4.396;2023-03-12T07:47:49;8.40;99.90
23160;DHT22;11748;50.844;4.396;2023-03-12T07:50:16;8.40;99.90
23160;DHT22;11748;50.844;4.396;2023-03-12T07:52:42;8.40;99.90
23160;DHT22;11748;50.844;4.396;2023-03-12T07:55:09;8.50;99.90
23160;DHT22;11748;50.844;4.396;2023-03-12T07:57:35;8.50;99.90
23160;DHT22;11748;50.844;4.396;2023-03-12T08:00:02;8.60;99.90
23160;DHT22;11748;50.844;4.396;2023-03-12T08:02:29;8.70;99.90
23160;DHT22;11748;50.844;4.396;2023-03-12T08:04:55;8.80;99.90
23160;DHT22;11748;50.844;4.396;2023-03-12T08:07:21;8.70;99.90
23160;DHT22;11748;50.844;4.396;2023-03-12T08:09:46;8.70;99.90
23160;DHT22;11748;50.844;4.396;2023-03-12T08:12:13;8.70;99.90
23160;DHT22;11748;50.844;4.396;2023-03-12T08:14:39;8.80;99.90
23160;DHT22;11748;50.844;4.396;2023-03-12T08:17:05;8.90;99.90
23160;DHT22;11748;50.844;4.396;2023-03-12T08:19:31;9.00;99.90
23160;DHT22;11748;50.844;4.396;2023-03-12T08:21:57;9.00;99.90
23160;DHT22;11748;50.844;4.396;2023-03-12T08:24:23;8.90;99.90
23160;DHT22;11748;50.844;4.396;2023-03-12T08:26:49;8.90;99.90
23160;DHT22;11748;50.844;4.396;2023-03-12T08:29:15;8.90;99.90
23160;DHT22;11748;50.844;4.396;2023-03-12T08:31:41;9.00;99.90
23160;DHT22;11748;50.844;4.396;2023-03-12T08:34:07;9.20;99.90
23160;DHT22;11748;50.844;4.396;2023-03-12T08:36:32;9.20;99.90
23160;DHT22;11748;50.844;4.396;2023-03-12T08:38:58;9.30;99.90
23160;DHT22;11748;50.844;4.396;2023-03-12T08:41:24;9.40;99.90
23160;DHT22;11748;50.844;4.396;2023-03-12T08:43:50;9.40;99.90
23160;DHT22;11748;50.844;4.396;2023-03-12T08:46:15;9.40;99.90
23160;DHT22;11748;50.844;4.396;2023-03-12T08:48:42;9.70;99.90
23160;DHT22;11748;50.844;4.396;2023-03-12T08:51:09;9.90;99.90
23160;DHT22;11748;50.844;4.396;2023-03-12T08:53:35;9.90;99.90
23160;DHT22;11748;50.844;4.396;2023-03-12T08:56:02;10.10;99.90
23160;DHT22;11748;50.844;4.396;2023-03-12T08:58:28;10.30;99.90
23160;DHT22;11748;50.844;4.396;2023-03-12T09:00:55;10.30;99.90
23160;DHT22;11748;50.844;4.396;2023-03-12T09:59:01;12.30;99.90
23160;DHT22;11748;50.844;4.396;2023-03-12T13:04:37;13.60;99.90
23160;DHT22;11748;50.844;4.396;2023-03-12T13:16:39;13.50;99.90
23160;DHT22;11748;50.844;4.396;2023-03-12T13:21:53;13.40;99.90
23160;DHT22;11748;50.844;4.396;2023-03-12T13:24:28;13.20;99.90
23160;DHT22;11748;50.844;4.396;2023-03-12T13:27:07;13.30;99.90
23160;DHT22;11748;50.844;4.396;2023-03-12T13:29:39;13.40;99.90
23160;DHT22;11748;50.844;4.396;2023-03-12T13:32:34;13.40;99.90
23160;DHT22;11748;50.844;4.396;2023-03-12T13:35:28;13.30;99.90
23160;DHT22;11748;50.844;4.396;2023-03-12T13:38:10;13.40;99.90
23160;DHT22;11748;50.844;4.396;2023-03-12T13:41:00;13.50;99.90
23160;DHT22;11748;50.844;4.396;2023-03-12T13:43:47;13.20;99.90
23160;DHT22;11748;50.844;4.396;2023-03-12T13:48:45;13.40;99.90
23160;DHT22;11748;50.844;4.396;2023-03-12T13:51:20;13.70;99.90
23160;DHT22;11748;50.844;4.396;2023-03-12T13:53:53;13.80;99.90
23160;DHT22;11748;50.844;4.396;2023-03-12T13:56:27;13.70;99.90
23160;DHT22;11748;50.844;4.396;2023-03-12T13:59:05;13.90;99.90
23160;DHT22;11748;50.844;4.396;2023-03-12T14:01:41;13.90;99.90
23160;DHT22;11748;50.844;4.396;2023-03-12T14:04:27;13.80;99.90
23160;DHT22;11748;50.844;4.396;2023-03-12T14:15:47;13.70;99.90
23160;DHT22;11748;50.844;4.396;2023-03-12T14:18:22;13.60;99.90
23160;DHT22;11748;50.844;4.396;2023-03-12T14:20:53;13.70;99.90
23160;DHT22;11748;50.844;4.396;2023-03-12T14:23:24;13.70;99.90
23160;DHT22;11748;50.844;4.396;2023-03-12T14:26:01;13.90;99.90
23160;DHT22;11748;50.844;4.396;2023-03-12T14:28:37;13.90;99.90
23160;DHT22;11748;50.844;4.396;2023-03-12T14:31:22;13.80;99.90
23160;DHT22;11748;50.844;4.396;2023-03-12T14:37:03;13.70;99.90
23160;DHT22;11748;50.844;4.396;2023-03-12T14:39:48;13.70;99.90
23160;DHT22;11748;50.844;4.396;2023-03-12T14:42:27;14.00;99.90
23160;DHT22;11748;50.844;4.396;2023-03-12T14:45:23;13.90;99.90
23160;DHT22;11748;50.844;4.396;2023-03-12T14:47:57;13.70;99.90
23160;DHT22;11748;50.844;4.396;2023-03-12T14:50:36;13.60;99.90
23160;DHT22;11748;50.844;4.396;2023-03-12T14:53:31;13.80;99.90
23160;DHT22;11748;50.844;4.396;2023-03-12T14:55:59;13.50;99.90
23160;DHT22;11748;50.844;4.396;2023-03-12T15:01:48;13.40;99.90
23160;DHT22;11748;50.844;4.396;2023-03-12T15:04:19;13.30;99.90
23160;DHT22;11748;50.844;4.396;2023-03-12T15:06:57;13.40;99.90
23160;DHT22;11748;50.844;4.396;2023-03-12T15:09:28;13.40;99.90
23160;DHT22;11748;50.844;4.396;2023-03-12T15:11:58;13.50;99.90
23160;DHT22;11748;50.844;4.396;2023-03-12T15:14:31;13.50;99.90
23160;DHT22;11748;50.844;4.396;2023-03-12T15:16:58;13.40;99.90
23160;DHT22;11748;50.844;4.396;2023-03-12T15:19:32;13.40;99.90
23160;DHT22;11748;50.844;4.396;2023-03-12T15:22:03;13.40;99.90
23160;DHT22;11748;50.844;4.396;2023-03-12T15:24:38;13.50;99.90
23160;DHT22;11748;50.844;4.396;2023-03-12T15:27:35;13.40;99.90
23160;DHT22;11748;50.844;4.396;2023-03-12T15:33:21;13.50;99.90
23160;DHT22;11748;50.844;4.396;2023-03-12T15:38:46;13.40;99.90
23160;DHT22;11748;50.844;4.396;2023-03-12T15:41:21;13.30;99.90
23160;DHT22;11748;50.844;4.396;2023-03-12T15:43:58;13.40;99.90
23160;DHT22;11748;50.844;4.396;2023-03-12T15:46:28;13.40;99.90
23160;DHT22;11748;50.844;4.396;2023-03-12T15:48:58;13.40;99.90
23160;DHT22;11748;50.844;4.396;2023-03-12T15:51:35;13.40;99.90
23160;DHT22;11748;50.844;4.396;2023-03-12T15:56:42;13.20;99.90
23160;DHT22;11748;50.844;4.396;2023-03-12T15:59:26;13.20;99.90
23160;DHT22;11748;50.844;4.396;2023-03-12T16:01:58;13.20;99.90
23160;DHT22;11748;50.844;4.396;2023-03-12T16:04:27;13.20;99.90
23160;DHT22;11748;50.844;4.396;2023-03-12T16:06:54;13.30;99.90
23160;DHT22;11748;50.844;4.396;2023-03-12T16:09:25;13.40;99.90
23160;DHT22;11748;50.844;4.396;2023-03-12T16:11:55;13.30;99.90
23160;DHT22;11748;50.844;4.396;2023-03-12T16:14:31;13.20;99.90
23160;DHT22;11748;50.844;4.396;2023-03-12T16:17:02;13.10;99.90
23160;DHT22;11748;50.844;4.396;2023-03-12T16:19:33;13.10;99.90
23160;DHT22;11748;50.844;4.396;2023-03-12T16:22:15;13.00;99.90
23160;DHT22;11748;50.844;4.396;2023-03-12T16:24:47;13.10;99.90
23160;DHT22;11748;50.844;4.396;2023-03-12T16:27:15;13.10;99.90
23160;DHT22;11748;50.844;4.396;2023-03-12T16:29:47;13.20;99.90
23160;DHT22;11748;50.844;4.396;2023-03-12T16:32:15;13.10;99.90
23160;DHT22;11748;50.844;4.396;2023-03-12T16:34:41;13.10;99.90
23160;DHT22;11748;50.844;4.396;2023-03-12T16:37:12;13.00;99.90
23160;DHT22;11748;50.844;4.396;2023-03-12T16:39:40;13.00;99.90
23160;DHT22;11748;50.844;4.396;2023-03-12T16:42:16;13.00;99.90
23160;DHT22;11748;50.844;4.396;2023-03-12T16:44:45;13.00;99.90
23160;DHT22;11748;50.844;4.396;2023-03-12T16:47:17;13.00;99.90
23160;DHT22;11748;50.844;4.396;2023-03-12T16:49:44;13.10;99.90
23160;DHT22;11748;50.844;4.396;2023-03-12T16:52:22;13.10;99.90
23160;DHT22;11748;50.844;4.396;2023-03-12T16:54:54;13.10;99.90
23160;DHT22;11748;50.844;4.396;2023-03-12T16:57:32;13.10;99.90
23160;DHT22;11748;50.844;4.396;2023-03-12T16:59:59;12.80;99.90
23160;DHT22;11748;50.844;4.396;2023-03-12T17:02:25;12.70;99.90
23160;DHT22;11748;50.844;4.396;2023-03-12T17:05:00;12.70;99.90
23160;DHT22;11748;50.844;4.396;2023-03-12T17:07:30;12.70;99.90
23160;DHT22;11748;50.844;4.396;2023-03-12T17:09:59;12.70;99.90
23160;DHT22;11748;50.844;4.396;2023-03-12T17:12:30;12.80;99.90
23160;DHT22;11748;50.844;4.396;2023-03-12T17:15:01;12.70;99.90
23160;DHT22;11748;50.844;4.396;2023-03-12T17:17:29;12.60;99.90
23160;DHT22;11748;50.844;4.396;2023-03-12T17:19:58;12.40;99.90
23160;DHT22;11748;50.844;4.396;2023-03-12T17:25:49;12.20;99.90
23160;DHT22;11748;50.844;4.396;2023-03-12T17:28:16;12.40;99.90
23160;DHT22;11748;50.844;4.396;2023-03-12T17:34:39;12.50;99.90
23160;DHT22;11748;50.844;4.396;2023-03-12T17:37:07;12.70;99.90
23160;DHT22;11748;50.844;4.396;2023-03-12T17:39:38;12.80;99.90
23160;DHT22;11748;50.844;4.396;2023-03-12T17:45:15;12.70;99.90
23160;DHT22;11748;50.844;4.396;2023-03-12T17:47:46;12.70;99.90
23160;DHT22;11748;50.844;4.396;2023-03-12T17:50:16;12.80;99.90
23160;DHT22;11748;50.844;4.396;2023-03-12T17:52:45;12.80;99.90
23160;DHT22;11748;50.844;4.396;2023-03-12T17:55:14;12.80;99.90
23160;DHT22;11748;50.844;4.396;2023-03-12T17:57:44;12.70;99.90
23160;DHT22;11748;50.844;4.396;2023-03-12T18:00:11;13.00;99.90
23160;DHT22;11748;50.844;4.396;2023-03-12T18:06:02;13.30;99.90
23160;DHT22;11748;50.844;4.396;2023-03-12T18:08:35;13.20;99.90
23160;DHT22;11748;50.844;4.396;2023-03-12T18:11:08;13.20;99.90
23160;DHT22;11748;50.844;4.396;2023-03-12T18:13:36;13.30;99.90
23160;DHT22;11748;50.844;4.396;2023-03-12T18:16:13;13.40;99.90
23160;DHT22;11748;50.844;4.396;2023-03-12T18:18:41;13.40;99.90
23160;DHT22;11748;50.844;4.396;2023-03-12T18:21:08;13.40;99.90
23160;DHT22;11748;50.844;4.396;2023-03-12T18:23:40;13.40;99.90
23160;DHT22;11748;50.844;4.396;2023-03-12T18:26:11;13.40;99.90
23160;DHT22;11748;50.844;4.396;2023-03-12T18:32:05;13.30;99.90
23160;DHT22;11748;50.844;4.396;2023-03-12T18:34:31;13.20;99.90
23160;DHT22;11748;50.844;4.396;2023-03-12T18:37:08;13.30;99.90
23160;DHT22;11748;50.844;4.396;2023-03-12T18:39:37;13.20;99.90
23160;DHT22;11748;50.844;4.396;2023-03-12T18:42:03;13.20;99.90
23160;DHT22;11748;50.844;4.396;2023-03-12T18:44:34;13.20;99.90
23160;DHT22;11748;50.844;4.396;2023-03-12T18:47:00;13.30;99.90
23160;DHT22;11748;50.844;4.396;2023-03-12T18:49:27;13.20;99.90
23160;DHT22;11748;50.844;4.396;2023-03-12T18:52:12;13.30;99.90
23160;DHT22;11748;50.844;4.396;2023-03-12T18:54:48;13.20;99.90
23160;DHT22;11748;50.844;4.396;2023-03-12T18:57:17;13.20;99.90
23160;DHT22;11748;50.844;4.396;2023-03-12T19:00:13;13.20;99.90
23160;DHT22;11748;50.844;4.396;2023-03-12T19:02:46;13.20;99.90
23160;DHT22;11748;50.844;4.396;2023-03-12T19:05:12;13.20;99.90
23160;DHT22;11748;50.844;4.396;2023-03-12T19:07:40;13.20;99.90
23160;DHT22;11748;50.844;4.396;2023-03-12T19:10:10;13.30;99.90
23160;DHT22;11748;50.844;4.396;2023-03-12T19:12:43;13.40;99.90
23160;DHT22;11748;50.844;4.396;2023-03-12T19:15:22;13.40;99.90
23160;DHT22;11748;50.844;4.396;2023-03-12T19:17:54;13.30;99.90
23160;DHT22;11748;50.844;4.396;2023-03-12T19:23:20;13.30;99.90
23160;DHT22;11748;50.844;4.396;2023-03-12T19:26:18;13.30;99.90
23160;DHT22;11748;50.844;4.396;2023-03-12T19:28:48;13.30;99.90
23160;DHT22;11748;50.844;4.396;2023-03-12T19:31:17;13.20;99.90
23160;DHT22;11748;50.844;4.396;2023-03-12T19:33:51;13.10;99.90
23160;DHT22;11748;50.844;4.396;2023-03-12T19:36:19;13.10;99.90
23160;DHT22;11748;50.844;4.396;2023-03-12T19:39:04;13.20;99.90
23160;DHT22;11748;50.844;4.396;2023-03-12T19:41:34;13.10;99.90
23160;DHT22;11748;50.844;4.396;2023-03-12T19:44:08;13.20;99.90
23160;DHT22;11748;50.844;4.396;2023-03-12T19:46:50;13.20;99.90
23160;DHT22;11748;50.844;4.396;2023-03-12T19:49:16;13.20;99.90
23160;DHT22;11748;50.844;4.396;2023-03-12T19:51:45;13.10;99.90
23160;DHT22;11748;50.844;4.396;2023-03-12T19:54:14;13.10;99.90
23160;DHT22;11748;50.844;4.396;2023-03-12T19:56:39;12.90;99.90
23160;DHT22;11748;50.844;4.396;2023-03-12T19:59:05;13.00;99.90
23160;DHT22;11748;50.844;4.396;2023-03-12T20:01:34;12.90;99.90
23160;DHT22;11748;50.844;4.396;2023-03-12T20:04:00;12.90;99.90
23160;DHT22;11748;50.844;4.396;2023-03-12T20:06:46;13.00;99.90
23160;DHT22;11748;50.844;4.396;2023-03-12T20:12:51;13.00;99.90
23160;DHT22;11748;50.844;4.396;2023-03-12T20:15:20;12.70;99.90
23160;DHT22;11748;50.844;4.396;2023-03-12T20:17:52;12.60;99.90
23160;DHT22;11748;50.844;4.396;2023-03-12T20:20:24;12.60;99.90
23160;DHT22;11748;50.844;4.396;2023-03-12T20:22:51;12.40;99.90
23160;DHT22;11748;50.844;4.396;2023-03-12T20:25:20;12.50;99.90
23160;DHT22;11748;50.844;4.396;2023-03-12T20:27:46;12.60;99.90
23160;DHT22;11748;50.844;4.396;2023-03-12T20:30:18;12.60;99.90
23160;DHT22;11748;50.844;4.396;2023-03-12T20:32:45;12.60;99.90
23160;DHT22;11748;50.844;4.396;2023-03-12T20:35:11;12.50;99.90
23160;DHT22;11748;50.844;4.396;2023-03-12T20:37:44;12.50;99.90
23160;DHT22;11748;50.844;4.396;2023-03-12T20:40:16;12.40;99.90
23160;DHT22;11748;50.844;4.396;2023-03-12T20:42:45;12.60;99.90
23160;DHT22;11748;50.844;4.396;2023-03-12T20:45:13;12.60;99.90
23160;DHT22;11748;50.844;4.396;2023-03-12T20:47:42;12.70;99.90
23160;DHT22;11748;50.844;4.396;2023-03-12T20:50:09;12.90;99.90
23160;DHT22;11748;50.844;4.396;2023-03-12T20:52:35;12.80;99.90
23160;DHT22;11748;50.844;4.396;2023-03-12T20:55:15;12.70;99.90
23160;DHT22;11748;50.844;4.396;2023-03-12T20:57:45;12.70;99.90
23160;DHT22;11748;50.844;4.396;2023-03-12T21:00:14;12.80;99.90
23160;DHT22;11748;50.844;4.396;2023-03-12T21:02:41;12.70;99.90
23160;DHT22;11748;50.844;4.396;2023-03-12T21:05:07;12.80;99.90
23160;DHT22;11748;50.844;4.396;2023-03-12T21:07:35;12.90;99.90